createdAt,value
2023-01-22T00:00:26.406Z,99.90
2023-01-22T00:03:29.574Z,99.90
2023-01-22T00:06:32.795Z,99.90
2023-01-22T00:09:36.023Z,99.90
2023-01-22T00:12:40.687Z,99.90
2023-01-22T00:15:43.894Z,99.90
2023-01-22T00:18:47.064Z,99.90
2023-01-22T00:21:50.239Z,99.90
2023-01-22T00:24:53.656Z,99.90
2023-01-22T00:27:58.356Z,99.90
2023-01-22T00:31:02.881Z,99.90
2023-01-22T00:34:06.359Z,99.90
2023-01-22T00:37:09.525Z,99.90
2023-01-22T00:40:13.936Z,99.90
2023-01-22T00:43:18.491Z,99.90
2023-01-22T00:46:21.785Z,99.90
2023-01-22T00:49:24.914Z,99.90
2023-01-22T00:52:28.087Z,99.90
2023-01-22T00:55:31.552Z,99.90
2023-01-22T00:58:36.437Z,99.90
2023-01-22T01:01:40.375Z,99.90
2023-01-22T01:04:43.946Z,99.90
2023-01-22T01:07:47.089Z,99.90
2023-01-22T01:10:50.393Z,99.90
2023-01-22T01:13:55.005Z,99.90
2023-01-22T01:16:58.933Z,99.90
2023-01-22T01:20:02.292Z,99.90
2023-01-22T01:23:05.433Z,99.90
2023-01-22T01:26:09.796Z,99.90
2023-01-22T01:29:15.808Z,99.90
2023-01-22T01:32:19.012Z,99.90
2023-01-22T01:35:24.243Z,99.90
2023-01-22T01:38:27.534Z,99.90
2023-01-22T01:41:30.735Z,99.90
2023-01-22T01:44:35.339Z,99.90
2023-01-22T01:47:38.472Z,99.90
2023-01-22T01:50:43.209Z,99.90
2023-01-22T01:53:48.976Z,99.90
2023-01-22T01:56:56.150Z,99.90
2023-01-22T02:00:02.682Z,99.90
2023-01-22T02:03:06.003Z,99.90
2023-01-22T02:06:12.102Z,99.90
2023-01-22T02:09:15.985Z,99.90
2023-01-22T02:12:19.159Z,99.90
2023-01-22T02:15:23.831Z,99.90
2023-01-22T02:18:27.098Z,99.90
2023-01-22T02:21:40.467Z,99.90
2023-01-22T02:24:43.641Z,99.90
2023-01-22T02:27:46.800Z,99.90
2023-01-22T02:30:50.506Z,99.90
2023-01-22T02:33:54.613Z,99.90
2023-01-22T02:36:59.209Z,99.90
2023-01-22T02:40:02.406Z,99.90
2023-01-22T02:43:05.630Z,99.90
2023-01-22T02:46:08.978Z,99.90
2023-01-22T02:49:12.193Z,99.90
2023-01-22T02:52:16.732Z,99.90
2023-01-22T02:55:19.900Z,99.90
2023-01-22T02:58:23.085Z,99.90
2023-01-22T03:01:26.494Z,99.90
2023-01-22T03:04:29.947Z,99.90
2023-01-22T03:07:42.341Z,99.90
2023-01-22T03:10:46.541Z,99.90
2023-01-22T03:14:07.318Z,99.90
2023-01-22T03:17:28.266Z,99.90
2023-01-22T03:20:49.087Z,99.90
2023-01-22T03:23:54.970Z,99.90
2023-01-22T03:26:58.175Z,99.90
2023-01-22T03:30:01.409Z,99.90
2023-01-22T03:33:04.610Z,99.90
2023-01-22T03:36:10.097Z,99.90
2023-01-22T03:39:15.360Z,99.90
2023-01-22T03:42:18.522Z,99.90
2023-01-22T03:45:21.670Z,99.90
2023-01-22T03:48:24.856Z,99.90
2023-01-22T03:51:28.105Z,99.90
2023-01-22T03:54:32.627Z,99.90
2023-01-22T03:57:35.799Z,99.90
2023-01-22T04:00:39.069Z,99.90
2023-01-22T04:03:42.328Z,99.90
2023-01-22T04:06:45.493Z,99.90
2023-01-22T04:09:50.052Z,99.90
2023-01-22T04:12:53.216Z,99.70
2023-01-22T04:15:56.352Z,98.50
2023-01-22T04:18:59.547Z,97.10
2023-01-22T04:22:02.709Z,96.10
2023-01-22T04:25:08.618Z,95.70
2023-01-22T04:28:11.915Z,94.50
2023-01-22T04:31:15.179Z,94.00
2023-01-22T04:34:18.465Z,94.00
2023-01-22T04:37:21.736Z,94.00
2023-01-22T04:40:26.355Z,93.90
2023-01-22T04:43:29.532Z,93.90
2023-01-22T04:46:32.671Z,94.20
2023-01-22T04:49:35.851Z,94.30
2023-01-22T04:52:38.984Z,94.50
2023-01-22T04:55:43.625Z,94.50
2023-01-22T04:58:46.817Z,94.70
2023-01-22T05:01:51.046Z,94.70
2023-01-22T05:04:54.191Z,95.20
2023-01-22T05:07:57.597Z,95.90
2023-01-22T05:11:03.693Z,96.40
2023-01-22T05:14:07.546Z,96.60
2023-01-22T05:17:11.691Z,97.10
2023-01-22T05:20:15.032Z,97.60
2023-01-22T05:23:18.253Z,98.00
2023-01-22T05:26:23.178Z,98.20
2023-01-22T05:29:27.249Z,98.30
2023-01-22T05:32:30.433Z,98.30
2023-01-22T05:35:33.619Z,98.50
2023-01-22T05:38:36.765Z,98.60
2023-01-22T05:41:41.328Z,98.50
2023-01-22T05:44:44.665Z,98.50
2023-01-22T05:47:53.333Z,98.20
2023-01-22T05:50:56.519Z,98.10
2023-01-22T05:53:59.712Z,97.30
2023-01-22T05:57:04.881Z,95.90
2023-01-22T06:00:09.661Z,95.60
2023-01-22T06:03:12.861Z,95.20
2023-01-22T06:06:16.617Z,95.10
2023-01-22T06:09:19.812Z,95.20
2023-01-22T06:12:24.798Z,95.00
2023-01-22T06:15:27.960Z,95.10
2023-01-22T06:18:31.197Z,95.00
2023-01-22T06:21:34.372Z,95.10
2023-01-22T06:24:37.611Z,95.20
2023-01-22T06:27:42.136Z,95.60
2023-01-22T06:30:45.301Z,95.90
2023-01-22T06:33:48.496Z,96.10
2023-01-22T06:36:51.636Z,96.30
2023-01-22T06:39:54.875Z,96.20
2023-01-22T06:42:59.451Z,96.20
2023-01-22T06:46:05.002Z,96.30
2023-01-22T06:49:10.353Z,96.30
2023-01-22T06:52:13.473Z,96.50
2023-01-22T06:55:16.809Z,97.10
2023-01-22T06:58:21.389Z,97.20
2023-01-22T07:01:26.033Z,97.60
2023-01-22T07:04:29.412Z,97.90
2023-01-22T07:07:32.567Z,97.90
2023-01-22T07:10:35.834Z,98.10
2023-01-22T07:13:40.365Z,97.60
2023-01-22T07:16:43.527Z,97.60
2023-01-22T07:19:46.666Z,97.50
2023-01-22T07:22:49.931Z,97.10
2023-01-22T07:25:53.115Z,96.70
2023-01-22T07:28:57.640Z,96.80
2023-01-22T07:32:00.871Z,96.60
2023-01-22T07:35:04.166Z,96.20
2023-01-22T07:38:08.210Z,96.20
2023-01-22T07:41:24.539Z,96.40
2023-01-22T07:44:30.234Z,96.50
2023-01-22T07:47:33.403Z,96.70
2023-01-22T07:50:36.957Z,96.80
2023-01-22T07:53:40.304Z,96.90
2023-01-22T07:56:43.474Z,97.00
2023-01-22T07:59:48.056Z,96.90
2023-01-22T08:02:51.354Z,96.90
2023-01-22T08:05:54.485Z,97.00
2023-01-22T08:08:59.059Z,97.40
2023-01-22T08:12:02.175Z,97.90
2023-01-22T08:15:07.718Z,98.20
2023-01-22T08:18:11.709Z,98.40
2023-01-22T08:21:14.877Z,98.40
2023-01-22T08:24:18.073Z,98.30
2023-01-22T08:27:21.365Z,98.00
2023-01-22T08:30:25.948Z,98.60
2023-01-22T08:33:30.024Z,99.20
2023-01-22T08:36:33.215Z,99.60
2023-01-22T08:39:36.390Z,99.10
2023-01-22T08:42:39.568Z,99.50
2023-01-22T08:45:44.560Z,99.70
2023-01-22T08:48:48.926Z,99.90
2023-01-22T08:51:52.096Z,99.90
2023-01-22T08:54:55.268Z,99.90
2023-01-22T08:57:59.910Z,99.90
2023-01-22T09:01:04.632Z,99.90
2023-01-22T09:04:08.042Z,99.90
2023-01-22T09:07:11.249Z,99.90
2023-01-22T09:10:14.522Z,99.90
2023-01-22T09:13:17.657Z,99.90
2023-01-22T09:16:22.258Z,99.90
2023-01-22T09:19:25.496Z,99.90
2023-01-22T09:22:28.695Z,99.90
2023-01-22T09:25:31.852Z,99.90
2023-01-22T09:28:36.224Z,99.90
2023-01-22T09:31:40.968Z,99.90
2023-01-22T09:34:44.193Z,99.90
2023-01-22T09:37:47.354Z,99.90
2023-01-22T09:40:54.935Z,99.90
2023-01-22T09:44:02.808Z,99.90
2023-01-22T09:47:12.686Z,99.90
2023-01-22T09:50:21.053Z,99.90
2023-01-22T09:53:24.439Z,99.90
2023-01-22T09:56:33.432Z,99.90
2023-01-22T09:59:42.669Z,99.90
2023-01-22T10:02:50.010Z,99.90
2023-01-22T10:05:56.488Z,99.90
2023-01-22T10:09:10.608Z,99.90
2023-01-22T10:12:15.224Z,99.90
2023-01-22T10:15:21.352Z,99.90
2023-01-22T10:18:32.338Z,99.90
2023-01-22T10:21:42.444Z,99.90
2023-01-22T10:24:45.608Z,99.90
2023-01-22T10:27:59.087Z,99.90
2023-01-22T10:31:02.432Z,99.90
2023-01-22T10:34:14.695Z,99.90
2023-01-22T10:37:19.566Z,99.90
2023-01-22T10:40:25.580Z,99.90
2023-01-22T10:43:33.731Z,99.90
2023-01-22T10:46:36.909Z,99.90
2023-01-22T10:49:41.474Z,99.90
2023-01-22T10:52:48.925Z,99.90
2023-01-22T10:55:54.883Z,99.90
2023-01-22T10:59:01.098Z,99.90
2023-01-22T11:02:17.100Z,99.90
2023-01-22T11:05:23.244Z,99.90
2023-01-22T11:08:30.929Z,99.90
2023-01-22T11:11:39.872Z,99.90
2023-01-22T11:14:43.419Z,99.90
2023-01-22T11:17:51.639Z,99.90
2023-01-22T11:20:58.609Z,99.90
2023-01-22T11:24:07.507Z,99.90
2023-01-22T11:27:39.829Z,99.90
2023-01-22T11:30:55.916Z,99.90
2023-01-22T11:34:20.760Z,99.90
2023-01-22T11:37:38.433Z,99.90
2023-01-22T11:41:00.779Z,99.90
2023-01-22T11:44:23.919Z,99.90
2023-01-22T11:47:47.000Z,99.90
2023-01-22T11:50:56.233Z,99.90
2023-01-22T11:54:23.331Z,99.90
2023-01-22T11:57:31.470Z,99.90
2023-01-22T12:00:46.088Z,99.90
2023-01-22T12:04:24.266Z,99.90
2023-01-22T12:07:53.146Z,99.90
2023-01-22T12:11:17.499Z,99.90
2023-01-22T12:14:55.835Z,99.90
2023-01-22T12:18:15.019Z,99.90
2023-01-22T12:21:27.699Z,99.90
2023-01-22T12:24:37.411Z,99.90
2023-01-22T12:27:47.886Z,99.90
2023-01-22T12:30:57.621Z,99.90
2023-01-22T12:34:04.157Z,99.90
2023-01-22T12:37:08.990Z,99.90
2023-01-22T12:40:33.284Z,99.90
2023-01-22T12:43:44.938Z,99.90
2023-01-22T12:46:59.997Z,99.90
2023-01-22T12:50:04.852Z,99.90
2023-01-22T12:53:24.449Z,99.90
2023-01-22T12:56:33.037Z,99.90
2023-01-22T12:59:47.404Z,99.90
2023-01-22T13:02:51.715Z,99.90
2023-01-22T13:05:55.296Z,99.90
2023-01-22T13:08:59.078Z,99.90
2023-01-22T13:12:10.059Z,99.90
2023-01-22T13:15:22.444Z,99.90
2023-01-22T13:18:29.293Z,99.90
2023-01-22T13:21:35.641Z,99.90
2023-01-22T13:24:49.811Z,99.90
2023-01-22T13:27:53.744Z,99.90
2023-01-22T13:31:01.747Z,99.90
2023-01-22T13:34:08.992Z,99.90
2023-01-22T13:37:23.531Z,99.90
2023-01-22T13:40:30.390Z,99.90
2023-01-22T13:43:39.734Z,99.90
2023-01-22T13:46:44.377Z,99.90
2023-01-22T13:49:49.970Z,99.90
2023-01-22T13:52:53.591Z,99.90
2023-01-22T13:56:03.940Z,99.90
2023-01-22T13:59:16.982Z,99.90
2023-01-22T14:02:24.334Z,99.90
2023-01-22T14:05:31.217Z,99.90
2023-01-22T14:08:46.668Z,99.90
2023-01-22T14:12:02.065Z,99.90
2023-01-22T14:15:16.059Z,99.90
2023-01-22T14:18:22.657Z,99.90
2023-01-22T14:21:26.953Z,99.90
2023-01-22T14:24:31.021Z,99.90
2023-01-22T14:27:43.202Z,99.90
2023-01-22T14:30:46.937Z,99.90
2023-01-22T14:33:53.180Z,99.90
2023-01-22T14:36:57.047Z,99.90
2023-01-22T14:40:01.694Z,99.90
2023-01-22T14:43:06.211Z,99.90
2023-01-22T14:46:09.873Z,99.90
2023-01-22T14:49:14.690Z,99.90
2023-01-22T14:52:18.704Z,99.90
2023-01-22T14:55:23.942Z,99.90
2023-01-22T14:58:28.587Z,99.90
2023-01-22T15:01:33.209Z,99.90
2023-01-22T15:04:40.968Z,99.90
2023-01-22T15:07:44.796Z,99.90
2023-01-22T15:10:50.891Z,99.90
2023-01-22T15:13:55.727Z,99.90
2023-01-22T15:16:59.519Z,99.90
2023-01-22T15:20:05.578Z,99.90
2023-01-22T15:23:09.514Z,99.90
2023-01-22T15:26:28.777Z,99.90
2023-01-22T15:29:33.523Z,99.90
2023-01-22T15:32:37.836Z,99.90
2023-01-22T15:35:42.382Z,99.90
2023-01-22T15:38:46.539Z,99.90
2023-01-22T15:41:51.588Z,99.90
2023-01-22T15:44:58.078Z,99.90
2023-01-22T15:48:02.120Z,99.90
2023-01-22T15:51:12.892Z,99.90
2023-01-22T15:54:18.594Z,99.90
2023-01-22T15:57:22.189Z,99.90
2023-01-22T16:00:27.776Z,99.90
2023-01-22T16:03:34.047Z,99.90
2023-01-22T16:06:40.102Z,99.90
2023-01-22T16:09:44.968Z,99.90
2023-01-22T16:12:49.663Z,99.90
2023-01-22T16:16:07.977Z,99.90
2023-01-22T16:19:13.497Z,99.90
2023-01-22T16:22:19.287Z,99.90
2023-01-22T16:25:23.279Z,99.90
2023-01-22T16:28:27.424Z,99.90
2023-01-22T16:31:34.931Z,99.90
2023-01-22T16:34:39.563Z,99.90
2023-01-22T16:37:47.411Z,99.90
2023-01-22T16:40:51.095Z,99.90
2023-01-22T16:43:57.200Z,99.90
2023-01-22T16:47:02.288Z,99.90
2023-01-22T16:50:06.661Z,99.90
2023-01-22T16:53:11.705Z,99.90
2023-01-22T16:56:17.276Z,99.90
2023-01-22T16:59:21.870Z,99.90
2023-01-22T17:02:27.199Z,99.90
2023-01-22T17:05:31.584Z,99.90
2023-01-22T17:08:37.546Z,99.90
2023-01-22T17:11:44.070Z,99.90
2023-01-22T17:14:54.049Z,99.90
2023-01-22T17:17:58.831Z,99.90
2023-01-22T17:21:06.675Z,99.90
2023-01-22T17:24:14.075Z,99.90
2023-01-22T17:27:20.683Z,99.90
2023-01-22T17:30:25.523Z,99.90
2023-01-22T17:33:31.066Z,99.90
2023-01-22T17:36:36.297Z,99.90
2023-01-22T17:39:44.634Z,99.90
2023-01-22T17:42:49.665Z,99.90
2023-01-22T17:45:54.102Z,99.90
2023-01-22T17:48:58.892Z,99.90
2023-01-22T17:52:03.289Z,99.90
2023-01-22T17:55:09.865Z,99.90
2023-01-22T17:58:15.839Z,99.90
2023-01-22T18:01:22.116Z,99.90
2023-01-22T18:04:26.588Z,99.90
2023-01-22T18:07:32.409Z,99.90
2023-01-22T18:10:40.232Z,99.90
2023-01-22T18:13:46.061Z,99.90
2023-01-22T18:16:51.352Z,99.90
2023-01-22T18:19:55.394Z,99.90
2023-01-22T18:22:59.504Z,99.90
2023-01-22T18:26:14.232Z,99.90
2023-01-22T18:29:19.199Z,99.90
2023-01-22T18:32:27.627Z,99.90
2023-01-22T18:35:35.158Z,99.90
2023-01-22T18:38:46.331Z,99.90
2023-01-22T18:41:56.028Z,99.90
2023-01-22T18:45:02.333Z,99.90
2023-01-22T18:48:08.459Z,99.90
2023-01-22T18:51:14.512Z,99.90
2023-01-22T18:54:20.291Z,99.90
2023-01-22T18:57:27.407Z,99.90
2023-01-22T19:00:35.452Z,99.90
2023-01-22T19:03:41.789Z,99.90
2023-01-22T19:06:48.645Z,99.90
2023-01-22T19:09:54.048Z,99.90
2023-01-22T19:13:01.391Z,99.90
2023-01-22T19:16:08.841Z,99.90
2023-01-22T19:19:15.348Z,99.90
2023-01-22T19:22:23.986Z,99.90
2023-01-22T19:25:29.101Z,99.90
2023-01-22T19:28:35.702Z,99.90
2023-01-22T19:31:41.389Z,99.90
2023-01-22T19:34:46.289Z,99.90
2023-01-22T19:37:50.265Z,99.90
2023-01-22T19:40:57.257Z,99.90
2023-01-22T19:44:07.756Z,99.90
2023-01-22T19:47:13.083Z,99.90
2023-01-22T19:50:18.713Z,99.90
2023-01-22T19:53:26.767Z,99.90
2023-01-22T19:56:35.154Z,99.90
2023-01-22T19:59:44.536Z,99.90
2023-01-22T20:02:49.532Z,99.90
2023-01-22T20:05:55.948Z,99.90
2023-01-22T20:09:01.085Z,99.90
2023-01-22T20:12:09.257Z,99.90
2023-01-22T20:15:16.494Z,99.90
2023-01-22T20:18:21.352Z,99.90
2023-01-22T20:21:27.466Z,99.90
2023-01-22T20:24:33.199Z,99.90
2023-01-22T20:27:39.182Z,99.90
2023-01-22T20:30:45.554Z,99.90
2023-01-22T20:33:50.963Z,99.90
2023-01-22T20:36:55.756Z,99.90
2023-01-22T20:40:00.650Z,99.90
2023-01-22T20:43:06.253Z,99.90
2023-01-22T20:46:15.973Z,99.90
2023-01-22T20:49:23.879Z,99.90
2023-01-22T20:52:29.655Z,99.90
2023-01-22T20:55:34.589Z,99.90
2023-01-22T20:58:54.420Z,99.90
2023-01-22T21:01:59.823Z,99.90
2023-01-22T21:05:04.821Z,99.90
2023-01-22T21:08:08.840Z,99.90
2023-01-22T21:11:14.370Z,99.90
2023-01-22T21:14:20.936Z,99.90
2023-01-22T21:17:26.627Z,99.90
2023-01-22T21:20:30.994Z,99.90
2023-01-22T21:23:37.015Z,99.90
2023-01-22T21:26:41.600Z,99.90
2023-01-22T21:29:45.536Z,99.90
2023-01-22T21:32:53.858Z,99.90
2023-01-22T21:35:58.072Z,99.90
2023-01-22T21:39:02.753Z,99.90
2023-01-22T21:42:26.274Z,99.90
2023-01-22T21:45:47.791Z,99.90
2023-01-22T21:48:54.455Z,99.90
2023-01-22T21:51:59.734Z,99.90
2023-01-22T21:55:03.284Z,99.90
2023-01-22T21:58:08.801Z,99.90
2023-01-22T22:01:16.328Z,99.90
2023-01-22T22:04:21.200Z,99.90
2023-01-22T22:07:24.386Z,99.90
2023-01-22T22:10:27.537Z,99.90
2023-01-22T22:13:31.101Z,99.90
2023-01-22T22:16:34.532Z,99.90
2023-01-22T22:19:39.337Z,99.90
2023-01-22T22:22:42.525Z,99.90
2023-01-22T22:25:48.904Z,99.90
2023-01-22T22:28:52.133Z,99.90
2023-01-22T22:31:55.667Z,99.90
2023-01-22T22:35:00.341Z,99.90
2023-01-22T22:38:03.617Z,99.90
2023-01-22T22:41:09.027Z,99.90
2023-01-22T22:44:14.999Z,99.90
2023-01-22T22:47:18.183Z,99.90
2023-01-22T22:50:23.072Z,99.90
2023-01-22T22:53:26.509Z,99.90
2023-01-22T22:56:30.237Z,99.90
2023-01-22T22:59:34.624Z,99.90
2023-01-22T23:02:37.796Z,99.90
2023-01-22T23:05:42.398Z,99.90
2023-01-22T23:08:52.135Z,99.90
2023-01-22T23:11:56.260Z,99.90
2023-01-22T23:14:59.472Z,99.90
2023-01-22T23:18:02.789Z,99.90
2023-01-22T23:21:08.939Z,99.90
2023-01-22T23:24:15.284Z,99.90
2023-01-22T23:27:18.485Z,99.90
2023-01-22T23:30:21.935Z,99.90
2023-01-22T23:33:25.133Z,99.90
2023-01-22T23:36:30.466Z,99.90
2023-01-22T23:39:33.665Z,99.90
2023-01-22T23:42:36.807Z,99.90
2023-01-22T23:45:40.336Z,99.90
2023-01-22T23:48:43.717Z,99.90
2023-01-22T23:51:48.319Z,99.90
2023-01-22T23:54:51.514Z,99.90
2023-01-22T23:57:55.102Z,99.90
